createdAt,value
2022-12-18T00:00:01.248Z,101680.40
2022-12-18T00:05:05.105Z,101689.20
2022-12-18T00:10:09.076Z,101694.00
2022-12-18T00:15:11.970Z,101690.80
2022-12-18T00:20:15.009Z,101705.60
2022-12-18T00:25:17.965Z,101711.40
2022-12-18T00:30:21.019Z,101729.20
2022-12-18T00:35:23.970Z,101726.20
2022-12-18T00:40:26.893Z,101731.80
2022-12-18T00:45:32.264Z,101729.60
2022-12-18T00:50:35.330Z,101741.00
2022-12-18T00:55:42.362Z,101748.40
2022-12-18T01:00:45.465Z,101761.80
2022-12-18T01:05:48.742Z,101763.00
2022-12-18T01:10:52.020Z,101766.40
2022-12-18T01:15:54.962Z,101761.80
2022-12-18T01:20:57.991Z,101768.60
2022-12-18T01:26:08.223Z,101762.20
2022-12-18T01:31:20.890Z,101777.00
2022-12-18T01:36:36.554Z,101786.20
2022-12-18T01:41:58.777Z,101793.00
2022-12-18T01:47:01.964Z,101803.80
2022-12-18T01:52:05.037Z,101806.80
2022-12-18T01:57:08.361Z,101807.60
2022-12-18T02:02:12.859Z,101808.20
2022-12-18T02:07:15.841Z,101806.00
2022-12-18T02:12:25.036Z,101804.20
2022-12-18T02:18:03.751Z,101817.60
2022-12-18T02:23:45.881Z,101823.00
2022-12-18T02:28:57.499Z,101831.80
2022-12-18T02:34:05.909Z,101841.00
2022-12-18T02:39:13.626Z,101832.40
2022-12-18T02:44:16.631Z,101828.40
2022-12-18T02:49:58.679Z,101839.40
2022-12-18T02:55:29.121Z,101845.20
2022-12-18T03:00:41.989Z,101866.00
2022-12-18T03:06:31.257Z,101861.80
2022-12-18T03:11:58.897Z,101871.40
2022-12-18T03:17:06.304Z,101876.20
2022-12-18T03:22:11.637Z,101876.60
2022-12-18T03:27:19.477Z,101880.40
2022-12-18T03:32:42.365Z,101883.80
2022-12-18T03:37:45.351Z,101884.60
2022-12-18T03:42:59.945Z,101889.40
2022-12-18T03:48:18.628Z,101889.40
2022-12-18T03:54:00.190Z,101899.40
2022-12-18T03:59:05.757Z,101912.80
2022-12-18T04:04:12.292Z,101910.00
2022-12-18T04:09:16.036Z,101908.00
2022-12-18T04:14:20.221Z,101914.40
2022-12-18T04:19:23.248Z,101918.00
2022-12-18T04:24:26.655Z,101929.00
2022-12-18T04:29:29.718Z,101927.00
2022-12-18T04:34:33.197Z,101933.40
2022-12-18T04:39:36.892Z,101944.20
2022-12-18T04:44:39.835Z,101953.80
2022-12-18T04:49:42.793Z,101963.00
2022-12-18T04:54:45.722Z,101970.00
2022-12-18T04:59:48.703Z,101965.80
2022-12-18T05:04:51.668Z,101972.40
2022-12-18T05:09:54.702Z,101976.60
2022-12-18T05:14:57.618Z,101973.40
2022-12-18T05:20:00.472Z,101983.20
2022-12-18T05:25:03.554Z,101988.40
2022-12-18T05:30:07.553Z,101990.80
2022-12-18T05:35:12.318Z,101999.20
2022-12-18T05:40:15.294Z,102007.80
2022-12-18T05:45:18.742Z,102015.80
2022-12-18T05:50:21.629Z,102017.80
2022-12-18T05:55:24.612Z,102019.80
2022-12-18T06:00:28.128Z,102028.60
2022-12-18T06:05:38.264Z,102033.20
2022-12-18T06:10:42.825Z,102038.00
2022-12-18T06:15:45.991Z,102044.80
2022-12-18T06:20:57.526Z,102046.60
2022-12-18T06:26:08.856Z,102061.60
2022-12-18T06:31:12.629Z,102056.60
2022-12-18T06:36:15.800Z,102056.00
2022-12-18T06:41:22.284Z,102069.80
2022-12-18T06:46:25.516Z,102073.40
2022-12-18T06:51:28.453Z,102074.20
2022-12-18T06:56:32.140Z,102082.20
2022-12-18T07:01:35.120Z,102088.60
2022-12-18T07:06:38.159Z,102101.00
2022-12-18T07:11:41.187Z,102109.60
2022-12-18T07:16:44.198Z,102118.40
2022-12-18T07:21:47.141Z,102127.40
2022-12-18T07:26:50.078Z,102138.60
2022-12-18T07:31:53.085Z,102142.80
2022-12-18T07:36:56.025Z,102139.80
2022-12-18T07:42:17.706Z,102144.40
2022-12-18T07:47:20.733Z,102155.80
2022-12-18T07:52:26.203Z,102160.60
2022-12-18T08:02:52.591Z,102158.60
2022-12-18T08:07:57.080Z,102162.60
2022-12-18T08:13:04.679Z,102158.20
2022-12-18T08:18:12.689Z,102160.80
2022-12-18T08:23:16.941Z,102158.00
2022-12-18T08:28:19.860Z,102178.40
2022-12-18T08:33:22.863Z,102183.00
2022-12-18T08:38:25.988Z,102186.40
2022-12-18T08:43:48.124Z,102198.80
2022-12-18T08:48:59.162Z,102201.60
2022-12-18T08:54:02.175Z,102214.80
2022-12-18T08:59:05.905Z,102220.80
2022-12-18T09:04:11.089Z,102219.20
2022-12-18T09:09:14.107Z,102234.40
2022-12-18T09:14:17.084Z,102238.00
2022-12-18T09:19:20.107Z,102245.60
2022-12-18T09:24:23.007Z,102230.00
2022-12-18T09:29:25.972Z,102230.40
2022-12-18T09:34:28.964Z,102244.60
2022-12-18T09:39:31.905Z,102255.60
2022-12-18T09:44:45.748Z,102251.40
2022-12-18T09:49:56.247Z,102251.00
2022-12-18T09:55:11.909Z,102260.20
2022-12-18T10:00:22.918Z,102262.20
2022-12-18T10:05:58.274Z,102264.00
2022-12-18T10:11:18.576Z,102240.00
2022-12-18T10:16:55.585Z,102248.20
2022-12-18T10:22:22.043Z,102247.80
2022-12-18T10:27:29.954Z,102249.80
2022-12-18T10:32:33.971Z,102244.00
2022-12-18T10:37:36.901Z,102243.00
2022-12-18T10:42:40.777Z,102243.00
2022-12-18T10:47:48.146Z,102240.60
2022-12-18T10:53:01.560Z,102237.00
2022-12-18T10:58:28.081Z,102232.20
2022-12-18T11:03:47.874Z,102242.80
2022-12-18T11:09:06.563Z,102255.80
2022-12-18T11:14:27.133Z,102242.00
2022-12-18T11:19:39.892Z,102242.60
2022-12-18T11:24:43.254Z,102241.80
2022-12-18T11:29:46.891Z,102243.40
2022-12-18T11:35:00.792Z,102258.80
2022-12-18T11:40:37.843Z,102253.00
2022-12-18T11:45:55.885Z,102266.00
2022-12-18T11:51:02.887Z,102258.80
2022-12-18T11:56:37.016Z,102245.80
2022-12-18T12:02:14.385Z,102265.00
2022-12-18T12:07:35.866Z,102273.40
2022-12-18T12:13:24.660Z,102289.40
2022-12-18T12:18:58.364Z,102282.60
2022-12-18T12:24:25.942Z,102289.80
2022-12-18T12:29:50.468Z,102290.80
2022-12-18T12:35:12.280Z,102302.80
2022-12-18T12:40:50.328Z,102306.20
2022-12-18T12:46:20.921Z,102306.40
2022-12-18T12:51:31.096Z,102291.40
2022-12-18T12:56:51.871Z,102298.60
2022-12-18T13:02:22.301Z,102296.20
2022-12-18T13:07:59.630Z,102294.00
2022-12-18T13:13:11.156Z,102301.40
2022-12-18T13:18:21.487Z,102314.80
2022-12-18T13:23:24.313Z,102313.40
2022-12-18T13:28:46.437Z,102319.40
2022-12-18T13:39:19.792Z,102322.20
2022-12-18T13:44:42.763Z,102331.00
2022-12-18T13:49:48.151Z,102333.60
2022-12-18T13:54:58.913Z,102333.60
2022-12-18T14:00:26.372Z,102331.20
2022-12-18T14:05:38.751Z,102349.60
2022-12-18T14:10:48.308Z,102353.20
2022-12-18T14:15:53.270Z,102368.20
2022-12-18T14:21:00.008Z,102374.40
2022-12-18T14:26:20.780Z,102381.80
2022-12-18T14:31:30.611Z,102392.20
2022-12-18T14:36:33.557Z,102394.60
2022-12-18T14:41:36.593Z,102403.40
2022-12-18T14:46:43.718Z,102401.40
2022-12-18T14:51:53.998Z,102398.60
2022-12-18T14:57:23.830Z,102401.80
2022-12-18T15:02:29.764Z,102404.60
2022-12-18T15:07:52.809Z,102402.00
2022-12-18T15:13:03.572Z,102404.00
2022-12-18T15:18:09.895Z,102411.80
2022-12-18T15:23:25.231Z,102405.00
2022-12-18T15:28:34.918Z,102411.20
2022-12-18T15:33:43.980Z,102404.80
2022-12-18T15:38:52.297Z,102396.60
2022-12-18T15:43:55.330Z,102409.40
2022-12-18T15:49:02.728Z,102399.20
2022-12-18T15:54:14.667Z,102396.60
2022-12-18T15:59:21.117Z,102390.80
2022-12-18T16:04:24.727Z,102402.80
2022-12-18T16:09:27.751Z,102402.20
2022-12-18T16:14:32.591Z,102401.00
2022-12-18T16:19:35.666Z,102400.40
2022-12-18T16:24:38.689Z,102406.00
2022-12-18T16:29:41.688Z,102408.40
2022-12-18T16:34:46.371Z,102410.80
2022-12-18T16:39:49.301Z,102408.80
2022-12-18T16:44:52.315Z,102411.80
2022-12-18T16:49:55.375Z,102399.20
2022-12-18T16:54:58.493Z,102405.20
2022-12-18T17:00:05.600Z,102409.60
2022-12-18T17:05:09.578Z,102399.20
2022-12-18T17:10:12.606Z,102417.40
2022-12-18T17:15:15.549Z,102422.60
2022-12-18T17:20:19.443Z,102447.80
2022-12-18T17:25:22.962Z,102454.40
2022-12-18T17:30:27.457Z,102439.80
2022-12-18T17:35:31.271Z,102432.20
2022-12-18T17:40:34.213Z,102432.40
2022-12-18T17:45:39.638Z,102426.20
2022-12-18T17:50:42.581Z,102406.80
2022-12-18T17:55:55.581Z,102404.00
2022-12-18T18:00:58.639Z,102402.60
2022-12-18T18:06:02.597Z,102395.00
2022-12-18T18:11:31.503Z,102394.40
2022-12-18T18:16:44.899Z,102408.80
2022-12-18T18:21:51.301Z,102388.60
2022-12-18T18:26:54.800Z,102385.00
2022-12-18T18:31:59.312Z,102384.40
2022-12-18T18:37:03.235Z,102397.40
2022-12-18T18:42:06.359Z,102392.80
2022-12-18T18:47:09.708Z,102407.80
2022-12-18T18:52:12.870Z,102416.40
2022-12-18T18:57:20.996Z,102420.80
2022-12-18T19:02:24.722Z,102417.20
2022-12-18T19:07:30.384Z,102403.00
2022-12-18T19:12:53.841Z,102398.80
2022-12-18T19:17:56.732Z,102398.60
2022-12-18T19:23:00.299Z,102399.20
2022-12-18T19:28:03.335Z,102404.80
2022-12-18T19:33:34.554Z,102409.80
2022-12-18T19:38:31.789Z,102420.60
2022-12-18T19:43:38.129Z,102429.20
2022-12-18T19:48:43.594Z,102425.20
2022-12-18T19:53:47.903Z,102428.00
2022-12-18T19:58:51.030Z,102434.20
2022-12-18T20:03:55.951Z,102440.80
2022-12-18T20:09:05.715Z,102427.00
2022-12-18T20:14:13.182Z,102424.80
2022-12-18T20:19:16.227Z,102425.40
2022-12-18T20:24:27.432Z,102420.80
2022-12-18T20:29:33.699Z,102425.20
2022-12-18T20:34:37.757Z,102417.80
2022-12-18T20:39:41.384Z,102417.00
2022-12-18T20:44:45.868Z,102413.40
2022-12-18T20:49:48.879Z,102417.40
2022-12-18T20:54:51.879Z,102430.00
2022-12-18T20:59:54.876Z,102431.80
2022-12-18T21:04:57.960Z,102436.80
2022-12-18T21:10:04.404Z,102429.40
2022-12-18T21:15:10.899Z,102407.60
2022-12-18T21:20:17.781Z,102387.20
2022-12-18T21:25:21.878Z,102382.80
2022-12-18T21:30:24.978Z,102383.60
2022-12-18T21:35:27.979Z,102382.20
2022-12-18T21:40:33.928Z,102371.60
2022-12-18T21:45:37.090Z,102366.00
2022-12-18T21:50:39.973Z,102376.20
2022-12-18T21:55:42.843Z,102388.80
2022-12-18T22:00:48.794Z,102398.80
2022-12-18T22:06:04.082Z,102394.00
2022-12-18T22:11:13.283Z,102401.80
2022-12-18T22:16:16.619Z,102402.60
2022-12-18T22:21:32.943Z,102398.80
2022-12-18T22:26:40.175Z,102402.60
2022-12-18T22:31:43.562Z,102396.60
2022-12-18T22:36:48.780Z,102393.80
2022-12-18T22:41:52.507Z,102385.60
2022-12-18T22:47:05.646Z,102382.20
2022-12-18T22:52:10.178Z,102393.00
2022-12-18T22:57:13.186Z,102386.40
2022-12-18T23:02:17.859Z,102389.40
2022-12-18T23:07:21.431Z,102395.00
2022-12-18T23:12:24.356Z,102392.80
2022-12-18T23:17:28.559Z,102399.60
2022-12-18T23:22:31.702Z,102398.20
2022-12-18T23:27:34.694Z,102393.00
2022-12-18T23:32:38.781Z,102401.20
2022-12-18T23:37:58.770Z,102401.80
2022-12-18T23:43:02.524Z,102399.00
2022-12-18T23:48:05.437Z,102397.60
2022-12-18T23:53:10.261Z,102387.80
2022-12-18T23:58:20.785Z,102392.00
